createdAt,value
2023-04-08T00:01:55.420Z,6.1
2023-04-08T00:03:55.382Z,6.07
2023-04-08T00:05:09.658Z,6.13
2023-04-08T00:07:09.695Z,6.09
2023-04-08T00:09:09.640Z,6.05
2023-04-08T00:11:09.675Z,6.07
2023-04-08T00:13:09.682Z,6.08
2023-04-08T00:15:09.627Z,6.08
2023-04-08T00:17:09.674Z,6.05
2023-04-08T00:19:09.673Z,6.09
2023-04-08T00:21:10.709Z,6.11
2023-04-08T00:23:10.751Z,6.09
2023-04-08T00:25:10.724Z,6.04
2023-04-08T00:27:10.718Z,5.99
2023-04-08T00:29:10.784Z,6.01
2023-04-08T00:31:10.808Z,5.99
2023-04-08T00:33:10.799Z,5.99
2023-04-08T00:35:30.151Z,6
2023-04-08T00:37:30.054Z,6.04
2023-04-08T00:39:30.091Z,6.01
2023-04-08T00:41:30.048Z,5.91
2023-04-08T00:43:30.102Z,5.99
2023-04-08T00:45:30.079Z,5.99
2023-04-08T00:47:30.058Z,5.99
2023-04-08T00:49:30.109Z,6
2023-04-08T00:50:56.339Z,5.99
2023-04-08T00:52:56.350Z,6.01
2023-04-08T00:54:56.398Z,6
2023-04-08T00:56:56.337Z,5.97
2023-04-08T00:58:56.364Z,5.96
2023-04-08T01:00:56.416Z,5.96
2023-04-08T01:02:56.413Z,5.92
2023-04-08T01:05:54.186Z,5.94
2023-04-08T01:07:54.189Z,5.92
2023-04-08T01:09:54.120Z,5.83
2023-04-08T01:11:54.174Z,5.84
2023-04-08T01:13:54.120Z,5.89
2023-04-08T01:15:54.144Z,5.91
2023-04-08T01:17:54.231Z,5.93
2023-04-08T01:19:54.107Z,5.92
2023-04-08T01:21:18.314Z,5.92
2023-04-08T01:23:18.288Z,5.89
2023-04-08T01:25:18.373Z,5.82
2023-04-08T01:27:18.332Z,5.65
2023-04-08T01:29:18.282Z,5.66
2023-04-08T01:31:18.314Z,5.68
2023-04-08T01:33:18.358Z,5.75
2023-04-08T01:36:22.132Z,5.79
2023-04-08T01:38:22.155Z,5.53
2023-04-08T01:40:22.130Z,5.62
2023-04-08T01:42:22.125Z,5.65
2023-04-08T01:44:22.301Z,5.7
2023-04-08T01:46:22.162Z,5.74
2023-04-08T01:48:22.155Z,5.74
2023-04-08T01:51:30.765Z,5.66
2023-04-08T01:53:30.729Z,5.72
2023-04-08T01:55:30.707Z,5.77
2023-04-08T01:57:30.709Z,5.8
2023-04-08T01:59:30.698Z,5.76
2023-04-08T02:01:30.922Z,5.77
2023-04-08T02:03:31.099Z,5.82
2023-04-08T02:05:30.715Z,5.81
2023-04-08T02:07:00.006Z,5.78
2023-04-08T02:08:59.956Z,5.64
2023-04-08T02:11:00.006Z,5.63
2023-04-08T02:12:59.958Z,5.6
2023-04-08T02:14:59.971Z,5.64
2023-04-08T02:16:59.937Z,5.66
2023-04-08T02:19:00.021Z,5.51
2023-04-08T02:22:28.100Z,5.53
2023-04-08T02:24:28.135Z,5.55
2023-04-08T02:26:28.128Z,5.53
2023-04-08T02:28:28.133Z,5.52
2023-04-08T02:30:28.129Z,5.54
2023-04-08T02:32:28.099Z,5.57
2023-04-08T02:34:28.098Z,5.5
2023-04-08T02:37:08.144Z,5.55
2023-04-08T02:39:08.259Z,5.54
2023-04-08T02:41:08.097Z,5.57
2023-04-08T02:43:08.138Z,5.5
2023-04-08T02:45:08.097Z,5.52
2023-04-08T02:47:08.130Z,5.53
2023-04-08T02:49:08.093Z,5.45
2023-04-08T02:52:45.932Z,5.5
2023-04-08T02:54:45.917Z,5.42
2023-04-08T02:56:45.908Z,5.45
2023-04-08T02:58:45.865Z,5.48
2023-04-08T03:00:45.927Z,5.51
2023-04-08T03:02:45.982Z,5.46
2023-04-08T03:04:45.847Z,5.47
2023-04-08T03:07:20.672Z,5.53
2023-04-08T03:09:20.706Z,5.54
2023-04-08T03:11:20.699Z,5.52
2023-04-08T03:13:20.674Z,5.36
2023-04-08T03:15:20.672Z,5.39
2023-04-08T03:17:20.754Z,5.24
2023-04-08T03:19:20.644Z,5.29
2023-04-08T03:21:20.713Z,5.32
2023-04-08T03:22:41.122Z,5.36
2023-04-08T03:24:41.194Z,5.39
2023-04-08T03:26:41.113Z,5.41
2023-04-08T03:28:41.161Z,5.43
2023-04-08T03:30:41.129Z,5.38
2023-04-08T03:32:41.160Z,5.38
2023-04-08T03:34:41.131Z,5.38
2023-04-08T03:37:50.658Z,5.42
2023-04-08T03:39:50.629Z,5.35
2023-04-08T03:41:50.610Z,5.43
2023-04-08T03:43:50.654Z,5.42
2023-04-08T03:45:50.679Z,5.32
2023-04-08T03:47:50.690Z,5.45
2023-04-08T03:49:50.657Z,5.43
2023-04-08T03:53:17.352Z,5.39
2023-04-08T03:55:17.306Z,5.4
2023-04-08T03:57:17.245Z,5.38
2023-04-08T03:59:17.269Z,5.31
2023-04-08T04:01:19.856Z,5.24
2023-04-08T04:03:17.357Z,5.33
2023-04-08T04:05:17.278Z,5.38
2023-04-08T04:08:56.192Z,5.24
2023-04-08T04:10:56.203Z,5.29
2023-04-08T04:12:56.122Z,5.38
2023-04-08T04:14:56.412Z,5.42
2023-04-08T04:16:56.245Z,5.4
2023-04-08T04:18:56.509Z,5.54
2023-04-08T04:20:56.148Z,5.52
2023-04-08T04:23:55.000Z,5.52
2023-04-08T04:25:54.961Z,5.56
2023-04-08T04:27:55.077Z,5.52
2023-04-08T04:29:55.084Z,5.54
2023-04-08T04:31:54.995Z,5.54
2023-04-08T04:33:55.002Z,5.5
2023-04-08T04:35:55.002Z,5.56
2023-04-08T04:39:08.756Z,5.65
2023-04-08T04:41:08.707Z,5.69
2023-04-08T04:43:08.784Z,5.46
2023-04-08T04:45:08.746Z,5.48
2023-04-08T04:47:08.680Z,5.53
2023-04-08T04:49:08.696Z,5.55
2023-04-08T04:51:08.746Z,5.53
2023-04-08T04:54:12.200Z,5.74
2023-04-08T04:56:12.165Z,5.8
2023-04-08T04:58:12.214Z,5.89
2023-04-08T05:00:12.203Z,5.92
2023-04-08T05:02:12.247Z,5.97
2023-04-08T05:04:12.218Z,5.94
2023-04-08T05:06:12.173Z,6.03
2023-04-08T05:08:57.879Z,5.6
2023-04-08T05:10:57.895Z,5.53
2023-04-08T05:12:57.841Z,5.35
2023-04-08T05:14:57.974Z,5.4
2023-04-08T05:16:57.857Z,5.54
2023-04-08T05:18:57.837Z,5.6
2023-04-08T05:20:57.951Z,5.76
2023-04-08T05:23:50.745Z,6
2023-04-08T05:25:50.811Z,5.93
2023-04-08T05:27:50.871Z,6.08
2023-04-08T05:29:50.920Z,6.18
2023-04-08T05:31:51.271Z,6.27
2023-04-08T05:33:50.719Z,6.33
2023-04-08T05:35:50.748Z,6.22
2023-04-08T05:37:50.787Z,6.26
2023-04-08T05:39:17.427Z,6.45
2023-04-08T05:41:17.443Z,6.41
2023-04-08T05:43:17.666Z,6.07
2023-04-08T05:45:17.502Z,6.09
2023-04-08T05:47:17.525Z,6.25
2023-04-08T05:49:17.429Z,6.38
2023-04-08T05:51:17.505Z,6.46
2023-04-08T05:54:53.433Z,6.75
2023-04-08T05:56:53.412Z,7.04
2023-04-08T05:58:53.349Z,6.99
2023-04-08T06:00:53.430Z,7.09
2023-04-08T06:02:53.662Z,7.05
2023-04-08T06:04:53.386Z,6.93
2023-04-08T06:06:53.363Z,7.06
2023-04-08T06:10:04.254Z,7.26
2023-04-08T06:12:04.208Z,7.44
2023-04-08T06:14:04.177Z,7.31
2023-04-08T06:16:04.278Z,7.44
2023-04-08T06:18:04.325Z,7.27
2023-04-08T06:20:04.279Z,7.5
2023-04-08T06:22:04.318Z,7.53
2023-04-08T06:25:06.510Z,7.25
2023-04-08T06:27:06.783Z,7.36
2023-04-08T06:29:06.192Z,7.1
2023-04-08T06:31:06.247Z,7.01
2023-04-08T06:33:06.266Z,7.36
2023-04-08T06:35:06.258Z,6.96
2023-04-08T06:37:06.267Z,7.18
2023-04-08T06:40:08.765Z,7.37
2023-04-08T06:42:08.719Z,7.55
2023-04-08T06:44:08.714Z,7.9
2023-04-08T06:46:08.791Z,8.08
2023-04-08T06:48:08.811Z,8.23
2023-04-08T06:50:08.782Z,8.53
2023-04-08T06:52:08.744Z,8.93
2023-04-08T06:55:10.513Z,8.8
2023-04-08T06:57:10.532Z,8.87
2023-04-08T06:59:10.531Z,9.01
2023-04-08T07:01:10.702Z,9.29
2023-04-08T07:03:10.594Z,9.17
2023-04-08T07:05:10.586Z,9.44
2023-04-08T07:07:10.462Z,9.07
2023-04-08T07:10:25.720Z,9.07
2023-04-08T07:12:25.618Z,8.73
2023-04-08T07:14:25.632Z,8.42
2023-04-08T07:16:25.702Z,7.79
2023-04-08T07:18:25.671Z,7
2023-04-08T07:20:25.719Z,7.88
2023-04-08T07:22:25.617Z,7.55
2023-04-08T07:25:31.118Z,7.53
2023-04-08T07:27:31.063Z,8.46
2023-04-08T07:29:31.066Z,8.77
2023-04-08T07:31:31.215Z,8.56
2023-04-08T07:33:31.114Z,8.28
2023-04-08T07:35:31.162Z,8.42
2023-04-08T07:37:31.110Z,8.8
2023-04-08T07:40:47.702Z,8.4
2023-04-08T07:42:47.643Z,8.83
2023-04-08T07:44:47.640Z,9.77
2023-04-08T07:46:47.703Z,9.7
2023-04-08T07:48:47.765Z,9.39
2023-04-08T07:51:07.784Z,9.75
2023-04-08T07:52:47.649Z,10.27
2023-04-08T07:56:05.251Z,10.36
2023-04-08T07:58:05.193Z,10.61
2023-04-08T08:00:05.184Z,11.12
2023-04-08T08:02:05.241Z,11.38
2023-04-08T08:04:05.243Z,11.3
2023-04-08T08:06:05.234Z,11.39
2023-04-08T08:08:05.164Z,11.18
2023-04-08T08:11:33.318Z,11.57
2023-04-08T08:13:33.306Z,11.93
2023-04-08T08:15:33.460Z,12.07
2023-04-08T08:17:33.327Z,12.4
2023-04-08T08:19:33.339Z,12.2
2023-04-08T08:21:33.306Z,12.46
2023-04-08T08:23:33.251Z,13.13
2023-04-08T08:26:26.656Z,13
2023-04-08T08:28:26.584Z,13.01
2023-04-08T08:30:26.691Z,12.27
2023-04-08T08:32:26.664Z,12.76
2023-04-08T08:34:26.633Z,13.72
2023-04-08T08:36:26.636Z,14.17
2023-04-08T08:38:26.620Z,13.64
2023-04-08T08:41:25.674Z,14.67
2023-04-08T08:43:25.759Z,14.91
2023-04-08T08:45:25.888Z,14.73
2023-04-08T08:47:25.721Z,15.8
2023-04-08T08:49:26.400Z,16.29
2023-04-08T08:51:25.665Z,16.28
2023-04-08T08:53:25.683Z,16.43
2023-04-08T08:56:20.844Z,16.98
2023-04-08T08:58:20.843Z,16.71
2023-04-08T09:00:20.895Z,17.07
2023-04-08T09:02:20.898Z,17.36
2023-04-08T09:04:21.110Z,17.59
2023-04-08T09:06:20.877Z,15.87
2023-04-08T09:08:20.885Z,16.05
2023-04-08T09:11:57.753Z,17.25
2023-04-08T09:13:57.659Z,18.34
2023-04-08T09:15:57.703Z,18.61
2023-04-08T09:17:57.632Z,18.61
2023-04-08T09:19:57.668Z,18.14
2023-04-08T09:21:57.624Z,18.17
2023-04-08T09:23:57.600Z,17.15
2023-04-08T09:26:57.424Z,17.61
2023-04-08T09:28:57.511Z,17.39
2023-04-08T09:30:57.415Z,16.93
2023-04-08T09:32:57.488Z,16.83
2023-04-08T09:34:57.415Z,17.3
2023-04-08T09:36:57.463Z,18.15
2023-04-08T09:38:57.415Z,17.67
2023-04-08T09:42:34.808Z,16.62
2023-04-08T09:44:34.790Z,16.09
2023-04-08T09:46:34.814Z,15.4
2023-04-08T09:48:34.759Z,14.94
2023-04-08T09:50:34.751Z,15.98
2023-04-08T09:52:34.775Z,16.25
2023-04-08T09:54:34.750Z,17.23
2023-04-08T09:57:08.681Z,17.75
2023-04-08T09:59:08.679Z,18.16
2023-04-08T10:01:09.081Z,17.47
2023-04-08T10:03:08.849Z,17.8
2023-04-08T10:05:08.788Z,18.83
2023-04-08T10:07:08.705Z,19.05
2023-04-08T10:09:08.655Z,19.28
2023-04-08T10:12:40.244Z,19.37
2023-04-08T10:14:40.113Z,19.07
2023-04-08T10:16:40.236Z,18.91
2023-04-08T10:18:40.191Z,17.51
2023-04-08T10:20:40.105Z,17.71
2023-04-08T10:22:40.202Z,17.4
2023-04-08T10:24:40.151Z,17.01
2023-04-08T10:27:46.526Z,17.21
2023-04-08T10:29:46.523Z,17.35
2023-04-08T10:31:46.497Z,17.61
2023-04-08T10:33:46.518Z,17.78
2023-04-08T10:35:46.684Z,18.04
2023-04-08T10:37:46.412Z,19.09
2023-04-08T10:39:46.456Z,19.08
2023-04-08T10:42:37.455Z,17.62
2023-04-08T10:44:37.446Z,18.54
2023-04-08T10:46:37.350Z,18.59
2023-04-08T10:48:37.369Z,17.46
2023-04-08T10:50:37.371Z,17.72
2023-04-08T10:52:37.341Z,17.98
2023-04-08T10:54:37.417Z,17.9
2023-04-08T10:57:42.059Z,17.63
2023-04-08T10:59:41.975Z,16.89
2023-04-08T11:01:42.020Z,16.25
2023-04-08T11:03:42.168Z,16.68
2023-04-08T11:05:41.961Z,17.16
2023-04-08T11:07:42.049Z,18.25
2023-04-08T11:09:41.934Z,18.72
2023-04-08T11:13:21.484Z,18.97
2023-04-08T11:15:21.607Z,19.03
2023-04-08T11:17:21.431Z,18.86
2023-04-08T11:19:21.481Z,18.49
2023-04-08T11:21:21.540Z,18.19
2023-04-08T11:23:21.531Z,17.9
2023-04-08T11:25:21.447Z,17.21
2023-04-08T11:27:58.282Z,16.25
2023-04-08T11:29:58.075Z,16.31
2023-04-08T11:31:58.229Z,16.86
2023-04-08T11:33:58.194Z,17.1
2023-04-08T11:35:58.229Z,16.99
2023-04-08T11:37:58.164Z,16.72
2023-04-08T11:39:58.157Z,16.81
2023-04-08T11:41:58.112Z,16.69
2023-04-08T11:43:57.176Z,17.02
2023-04-08T11:45:57.114Z,17.16
2023-04-08T11:47:57.176Z,16.88
2023-04-08T11:49:57.294Z,16.94
2023-04-08T11:51:57.533Z,16.74
2023-04-08T11:53:57.377Z,16.82
2023-04-08T11:55:57.086Z,16.83
2023-04-08T11:58:34.215Z,16.3
2023-04-08T12:00:34.163Z,16.07
2023-04-08T12:02:34.277Z,16.21
2023-04-08T12:04:34.316Z,16.08
2023-04-08T12:06:34.158Z,15.79
2023-04-08T12:08:34.321Z,15.84
2023-04-08T12:10:34.174Z,16.08
2023-04-08T12:13:55.286Z,15.91
2023-04-08T12:15:55.312Z,15.98
2023-04-08T12:17:55.281Z,16.13
2023-04-08T12:19:55.309Z,15.95
2023-04-08T12:21:55.396Z,15.66
2023-04-08T12:23:55.228Z,15.6
2023-04-08T12:25:55.253Z,15.03
2023-04-08T12:28:40.457Z,14.2
2023-04-08T12:30:40.351Z,13.69
2023-04-08T12:32:40.438Z,14.44
2023-04-08T12:34:40.353Z,14.9
2023-04-08T12:36:41.703Z,14.46
2023-04-08T12:38:40.439Z,14.55
2023-04-08T12:40:40.393Z,14.67
2023-04-08T12:44:10.999Z,14.41
2023-04-08T12:46:10.831Z,14.39
2023-04-08T12:48:10.994Z,14.94
2023-04-08T12:50:10.833Z,14.63
2023-04-08T12:52:10.879Z,14.79
2023-04-08T12:54:10.930Z,15.45
2023-04-08T12:56:11.030Z,15.1
2023-04-08T12:59:04.961Z,14.13
2023-04-08T13:01:05.007Z,14.22
2023-04-08T13:03:05.069Z,14.39
2023-04-08T13:05:04.995Z,14.24
2023-04-08T13:07:05.210Z,15.08
2023-04-08T13:09:04.943Z,15.63
2023-04-08T13:11:05.157Z,15.82
2023-04-08T13:14:38.254Z,16.24
2023-04-08T13:16:38.284Z,16.32
2023-04-08T13:18:38.114Z,16.34
2023-04-08T13:20:38.199Z,16.18
2023-04-08T13:22:38.179Z,16.06
2023-04-08T13:24:38.195Z,16.03
2023-04-08T13:26:38.151Z,15.69
2023-04-08T13:29:55.500Z,15.75
2023-04-08T13:31:55.160Z,15.79
2023-04-08T13:33:57.809Z,15.72
2023-04-08T13:35:55.090Z,15.67
2023-04-08T13:37:55.074Z,15.81
2023-04-08T13:39:55.047Z,15.85
2023-04-08T13:41:55.068Z,15.65
2023-04-08T13:45:05.262Z,15.81
2023-04-08T13:47:05.193Z,15.1
2023-04-08T13:49:05.163Z,15.17
2023-04-08T13:51:05.145Z,15.26
2023-04-08T13:53:05.432Z,15.7
2023-04-08T13:55:05.168Z,15.59
2023-04-08T13:57:05.154Z,15.64
2023-04-08T14:00:11.828Z,15.28
2023-04-08T14:02:12.001Z,14.95
2023-04-08T14:04:11.828Z,14.78
2023-04-08T14:06:11.818Z,14.79
2023-04-08T14:08:11.970Z,14.72
2023-04-08T14:10:11.795Z,14.93
2023-04-08T14:12:11.857Z,15.07
2023-04-08T14:15:30.518Z,14.78
2023-04-08T14:17:30.601Z,14.77
2023-04-08T14:19:30.555Z,14.33
2023-04-08T14:21:30.532Z,14.31
2023-04-08T14:23:30.574Z,14.31
2023-04-08T14:25:30.491Z,14.43
2023-04-08T14:27:30.504Z,14.41
2023-04-08T14:30:13.954Z,13.72
2023-04-08T14:32:13.907Z,13.63
2023-04-08T14:34:13.872Z,13.56
2023-04-08T14:36:14.008Z,13.47
2023-04-08T14:38:13.967Z,13.29
2023-04-08T14:40:13.975Z,12.87
2023-04-08T14:42:14.074Z,12.18
2023-04-08T14:44:59.234Z,12.17
2023-04-08T14:46:59.270Z,12.6
2023-04-08T14:48:59.289Z,12.44
2023-04-08T14:50:59.192Z,12.36
2023-04-08T14:52:59.209Z,12.46
2023-04-08T14:54:59.414Z,12.34
2023-04-08T14:56:59.247Z,12.2
2023-04-08T14:58:59.301Z,12.15
2023-04-08T15:00:57.194Z,11.79
2023-04-08T15:02:57.196Z,11.6
2023-04-08T15:04:57.190Z,11.63
2023-04-08T15:06:57.147Z,11.47
2023-04-08T15:08:57.129Z,11.48
2023-04-08T15:10:57.161Z,11.42
2023-04-08T15:12:57.101Z,11.38
2023-04-08T15:15:36.213Z,11.47
2023-04-08T15:17:36.115Z,11.51
2023-04-08T15:19:36.072Z,11.58
2023-04-08T15:21:36.263Z,11.64
2023-04-08T15:23:36.082Z,11.66
2023-04-08T15:25:36.099Z,11.63
2023-04-08T15:27:36.135Z,11.58
2023-04-08T15:31:03.163Z,11.49
2023-04-08T15:33:03.190Z,11.39
2023-04-08T15:35:03.155Z,11.1
2023-04-08T15:37:03.164Z,10.98
2023-04-08T15:39:03.181Z,11.25
2023-04-08T15:41:03.113Z,11.21
2023-04-08T15:43:03.128Z,11.24
2023-04-08T15:46:31.384Z,11.24
2023-04-08T15:48:31.272Z,11.3
2023-04-08T15:50:31.376Z,11.34
2023-04-08T15:52:31.384Z,11.35
2023-04-08T15:54:31.274Z,11.34
2023-04-08T15:56:31.255Z,11.28
2023-04-08T15:58:31.191Z,11.08
2023-04-08T16:01:34.405Z,10.7
2023-04-08T16:03:34.114Z,10.78
2023-04-08T16:05:34.519Z,10.88
2023-04-08T16:07:34.041Z,10.86
2023-04-08T16:09:34.052Z,10.79
2023-04-08T16:11:34.377Z,10.54
2023-04-08T16:13:34.561Z,10.44
2023-04-08T16:16:34.113Z,10.58
2023-04-08T16:18:34.136Z,10.61
2023-04-08T16:20:34.043Z,10.58
2023-04-08T16:22:34.048Z,10.53
2023-04-08T16:24:34.141Z,10.55
2023-04-08T16:26:34.079Z,10.56
2023-04-08T16:28:34.027Z,10.5
2023-04-08T16:31:11.500Z,10.5
2023-04-08T16:33:11.469Z,10.52
2023-04-08T16:35:11.387Z,10.05
2023-04-08T16:37:12.228Z,9.96
2023-04-08T16:39:11.486Z,10.21
2023-04-08T16:41:11.423Z,10.23
2023-04-08T16:43:11.748Z,10.11
2023-04-08T16:45:11.384Z,10.18
2023-04-08T16:47:08.329Z,10.05
2023-04-08T16:49:08.284Z,9.69
2023-04-08T16:51:08.294Z,9.73
2023-04-08T16:53:08.340Z,9.79
2023-04-08T16:55:08.313Z,9.73
2023-04-08T16:57:08.356Z,9.82
2023-04-08T16:59:08.278Z,9.82
2023-04-08T17:01:42.084Z,9.82
2023-04-08T17:03:42.248Z,9.87
2023-04-08T17:05:42.341Z,9.94
2023-04-08T17:07:42.004Z,9.98
2023-04-08T17:09:42.066Z,10.04
2023-04-08T17:11:42.057Z,10.04
2023-04-08T17:13:42.123Z,10
2023-04-08T17:17:08.544Z,9.91
2023-04-08T17:19:08.567Z,9.85
2023-04-08T17:21:08.544Z,9.87
2023-04-08T17:23:08.584Z,9.87
2023-04-08T17:25:11.568Z,9.89
2023-04-08T17:27:08.618Z,9.85
2023-04-08T17:29:08.745Z,9.85
2023-04-08T17:32:16.126Z,9.86
2023-04-08T17:34:16.084Z,9.87
2023-04-08T17:36:15.915Z,9.84
2023-04-08T17:38:16.132Z,9.83
2023-04-08T17:40:15.862Z,9.84
2023-04-08T17:42:15.863Z,9.83
2023-04-08T17:44:15.928Z,9.58
2023-04-08T17:47:24.296Z,9.41
2023-04-08T17:49:24.244Z,9.45
2023-04-08T17:51:24.280Z,9.54
2023-04-08T17:53:24.216Z,9.52
2023-04-08T17:55:24.360Z,9.46
2023-04-08T17:57:24.299Z,9.33
2023-04-08T17:59:24.252Z,9.27
2023-04-08T18:02:52.176Z,9.27
2023-04-08T18:04:52.045Z,9.26
2023-04-08T18:06:51.885Z,9.25
2023-04-08T18:08:51.788Z,9.26
2023-04-08T18:10:51.777Z,9.25
2023-04-08T18:12:57.735Z,9.25
2023-04-08T18:14:51.869Z,9.16
2023-04-08T18:18:10.018Z,9.04
2023-04-08T18:20:09.929Z,9.01
2023-04-08T18:22:09.954Z,8.85
2023-04-08T18:24:10.027Z,8.84
2023-04-08T18:26:09.978Z,8.81
2023-04-08T18:28:09.992Z,8.76
2023-04-08T18:30:09.991Z,8.63
2023-04-08T18:32:59.528Z,8.5
2023-04-08T18:34:59.598Z,8.44
2023-04-08T18:36:59.526Z,8.44
2023-04-08T18:38:59.486Z,8.39
2023-04-08T18:40:59.714Z,8.36
2023-04-08T18:42:59.476Z,8.37
2023-04-08T18:44:59.630Z,8.32
2023-04-08T18:47:54.749Z,8.06
2023-04-08T18:49:54.803Z,8.09
2023-04-08T18:52:01.620Z,7.99
2023-04-08T18:53:54.841Z,8.03
2023-04-08T18:55:54.845Z,8.08
2023-04-08T18:57:54.695Z,8
2023-04-08T18:59:54.720Z,8.03
2023-04-08T19:03:44.240Z,8.14
2023-04-08T19:05:44.172Z,8.14
2023-04-08T19:07:44.241Z,8.08
2023-04-08T19:09:44.086Z,8.06
2023-04-08T19:11:44.217Z,8.01
2023-04-08T19:13:44.095Z,8.08
2023-04-08T19:15:44.119Z,8.09
2023-04-08T19:18:42.947Z,7.98
2023-04-08T19:20:42.909Z,7.89
2023-04-08T19:22:42.929Z,7.87
2023-04-08T19:24:42.918Z,7.94
2023-04-08T19:26:42.902Z,7.98
2023-04-08T19:28:42.884Z,7.98
2023-04-08T19:30:42.904Z,7.97
2023-04-08T19:33:41.036Z,8
2023-04-08T19:35:41.219Z,8.02
2023-04-08T19:37:41.124Z,8.02
2023-04-08T19:39:41.279Z,8.03
2023-04-08T19:41:41.030Z,8.07
2023-04-08T19:43:41.064Z,8.01
2023-04-08T19:45:41.022Z,8.01
2023-04-08T19:48:56.167Z,7.98
2023-04-08T19:50:56.205Z,8.02
2023-04-08T19:52:56.380Z,7.98
2023-04-08T19:54:56.181Z,7.97
2023-04-08T19:56:57.792Z,7.95
2023-04-08T19:58:56.167Z,8
2023-04-08T20:00:56.174Z,7.95
2023-04-08T20:03:48.334Z,7.97
2023-04-08T20:05:48.297Z,7.98
2023-04-08T20:07:48.304Z,8.05
2023-04-08T20:09:48.314Z,8.05
2023-04-08T20:11:48.391Z,8.01
2023-04-08T20:13:48.250Z,8.02
2023-04-08T20:15:48.239Z,8.02
2023-04-08T20:19:16.241Z,7.93
2023-04-08T20:21:16.205Z,7.99
2023-04-08T20:23:16.236Z,7.94
2023-04-08T20:25:16.220Z,7.89
2023-04-08T20:27:16.164Z,7.84
2023-04-08T20:29:16.190Z,7.8
2023-04-08T20:31:16.312Z,7.74
2023-04-08T20:34:09.084Z,7.76
2023-04-08T20:36:09.034Z,7.78
2023-04-08T20:38:09.033Z,7.74
2023-04-08T20:40:08.995Z,7.69
2023-04-08T20:42:09.118Z,7.7
2023-04-08T20:44:09.027Z,7.73
2023-04-08T20:46:09.094Z,7.77
2023-04-08T20:48:58.671Z,7.72
2023-04-08T20:50:58.698Z,7.7
2023-04-08T20:52:58.675Z,7.68
2023-04-08T20:54:58.651Z,7.59
2023-04-08T20:56:58.686Z,7.53
2023-04-08T20:59:00.261Z,7.58
2023-04-08T21:00:58.680Z,7.56
2023-04-08T21:02:58.878Z,7.54
2023-04-08T21:04:27.299Z,7.53
2023-04-08T21:06:27.270Z,7.56
2023-04-08T21:08:27.230Z,7.5
2023-04-08T21:10:27.286Z,7.39
2023-04-08T21:12:27.241Z,7.29
2023-04-08T21:14:27.309Z,7.32
2023-04-08T21:16:27.241Z,7.27
2023-04-08T21:19:47.659Z,7.16
2023-04-08T21:21:47.686Z,7.01
2023-04-08T21:23:47.640Z,6.94
2023-04-08T21:25:47.847Z,6.88
2023-04-08T21:27:47.618Z,6.89
2023-04-08T21:29:47.677Z,6.83
2023-04-08T21:31:47.631Z,6.72
2023-04-08T21:34:53.205Z,6.67
2023-04-08T21:36:53.214Z,6.6
2023-04-08T21:38:53.506Z,6.57
2023-04-08T21:40:53.193Z,6.44
2023-04-08T21:42:53.280Z,6.45
2023-04-08T21:44:53.216Z,6.37
2023-04-08T21:46:53.210Z,6.34
2023-04-08T21:50:10.740Z,6.29
2023-04-08T21:52:10.746Z,6.29
2023-04-08T21:54:10.757Z,6.24
2023-04-08T21:56:10.695Z,6.23
2023-04-08T21:58:10.730Z,6.2
2023-04-08T22:00:10.780Z,6.21
2023-04-08T22:02:11.660Z,6.13
2023-04-08T22:04:55.948Z,6.06
2023-04-08T22:06:55.897Z,6.06
2023-04-08T22:08:55.893Z,5.95
2023-04-08T22:10:55.926Z,5.95
2023-04-08T22:12:55.948Z,5.93
2023-04-08T22:14:55.941Z,5.92
2023-04-08T22:16:55.959Z,5.91
2023-04-08T22:20:16.090Z,5.73
2023-04-08T22:22:16.042Z,5.74
2023-04-08T22:24:16.027Z,5.59
2023-04-08T22:26:16.037Z,5.6
2023-04-08T22:28:16.389Z,5.64
2023-04-08T22:30:16.047Z,5.59
2023-04-08T22:32:16.061Z,5.63
2023-04-08T22:35:33.914Z,5.58
2023-04-08T22:37:33.882Z,5.54
2023-04-08T22:39:33.879Z,5.47
2023-04-08T22:41:33.920Z,5.38
2023-04-08T22:43:33.887Z,5.29
2023-04-08T22:45:33.945Z,5.43
2023-04-08T22:47:33.953Z,5.42
2023-04-08T22:51:05.224Z,5.41
2023-04-08T22:53:05.312Z,5.39
2023-04-08T22:55:05.236Z,5.4
2023-04-08T22:57:05.225Z,5.36
2023-04-08T22:59:05.263Z,5.33
2023-04-08T23:01:05.298Z,5.33
2023-04-08T23:03:05.322Z,5.27
2023-04-08T23:05:54.188Z,5.26
2023-04-08T23:07:54.221Z,5.22
2023-04-08T23:09:54.193Z,5.21
2023-04-08T23:11:54.174Z,5.15
2023-04-08T23:13:54.194Z,5.15
2023-04-08T23:15:54.194Z,5.04
2023-04-08T23:17:54.272Z,4.99
2023-04-08T23:20:46.948Z,4.91
2023-04-08T23:22:46.903Z,5.03
2023-04-08T23:24:46.980Z,5.05
2023-04-08T23:26:46.993Z,5.02
2023-04-08T23:28:47.224Z,5
2023-04-08T23:30:47.035Z,4.98
2023-04-08T23:32:47.089Z,4.97
2023-04-08T23:36:11.657Z,4.96
2023-04-08T23:38:11.559Z,4.86
2023-04-08T23:40:11.601Z,4.82
2023-04-08T23:42:11.551Z,4.89
2023-04-08T23:44:11.538Z,4.92
2023-04-08T23:46:11.588Z,4.91
2023-04-08T23:48:11.601Z,4.89
2023-04-08T23:51:27.054Z,4.81
2023-04-08T23:53:26.988Z,4.77
2023-04-08T23:55:27.020Z,4.81
2023-04-08T23:57:26.991Z,4.85
2023-04-08T23:59:26.992Z,4.88
